createdAt,value
2023-02-27T06:42:32.820Z,50.34
2023-02-27T06:47:34.937Z,49.95
2023-02-27T06:52:38.541Z,49.00
2023-02-27T06:57:40.629Z,49.05
2023-02-27T07:02:42.763Z,48.05
2023-02-27T07:07:44.857Z,48.11
2023-02-27T07:12:46.939Z,48.45
2023-02-27T07:17:49.014Z,47.67
2023-02-27T07:22:51.081Z,47.17
2023-02-27T07:27:53.196Z,47.03
2023-02-27T07:32:55.266Z,46.52
2023-02-27T07:37:57.320Z,45.80
2023-02-27T07:42:59.924Z,45.38
2023-02-27T07:48:02.095Z,44.93
2023-02-27T07:53:05.454Z,44.84
2023-02-27T07:58:07.520Z,44.89
2023-02-27T08:03:10.359Z,44.05
2023-02-27T08:08:12.469Z,44.28
2023-02-27T08:13:16.716Z,43.58
2023-02-27T08:18:18.831Z,42.90
2023-02-27T08:23:20.919Z,42.23
2023-02-27T08:28:23.031Z,42.52
2023-02-27T08:33:25.381Z,42.21
2023-02-27T08:38:27.516Z,42.25
2023-02-27T08:43:29.599Z,41.90
2023-02-27T08:48:31.700Z,42.35
2023-02-27T08:53:33.754Z,41.93
2023-02-27T08:58:36.011Z,41.96
2023-02-27T09:03:38.112Z,41.56
2023-02-27T09:08:40.196Z,41.19
2023-02-27T09:13:42.399Z,40.91
2023-02-27T09:18:44.625Z,40.33
2023-02-27T09:23:46.868Z,40.50
2023-02-27T09:28:49.633Z,40.28
2023-02-27T09:33:51.731Z,40.75
2023-02-27T09:38:54.061Z,40.40
2023-02-27T10:02:00.932Z,39.23
2023-02-27T10:07:12.394Z,38.12
2023-02-27T10:12:27.328Z,37.17
2023-02-27T10:17:35.444Z,37.53
2023-02-27T10:22:43.200Z,37.17
2023-02-27T10:27:50.200Z,37.28
2023-02-27T10:32:57.320Z,37.10
2023-02-27T10:38:03.079Z,36.16
2023-02-27T10:43:06.502Z,35.22
2023-02-27T10:48:09.131Z,34.16
2023-02-27T10:53:23.421Z,33.60
2023-02-27T10:58:28.597Z,34.27
2023-02-27T11:03:38.668Z,34.50
2023-02-27T11:08:43.909Z,34.83
2023-02-27T11:13:46.001Z,33.49
2023-02-27T11:18:50.206Z,31.12
2023-02-27T11:23:58.309Z,29.89
2023-02-27T11:29:18.901Z,28.19
2023-02-27T11:34:26.942Z,26.14
2023-02-27T11:39:31.113Z,29.49
2023-02-27T11:44:50.351Z,31.78
2023-02-27T11:50:16.824Z,31.12
2023-02-27T11:55:27.861Z,31.68
2023-02-27T12:00:37.808Z,31.84
2023-02-27T12:06:13.361Z,28.96
2023-02-27T12:11:29.291Z,24.00
2023-02-27T12:16:40.555Z,21.86
2023-02-27T12:21:54.254Z,24.00
2023-02-27T12:27:11.691Z,24.26
2023-02-27T12:32:36.737Z,25.13
2023-02-27T12:37:39.207Z,25.59
2023-02-27T12:43:11.837Z,27.00
2023-02-27T12:48:57.849Z,26.62
2023-02-27T12:54:12.181Z,27.50
2023-02-27T12:59:46.241Z,28.27
2023-02-27T13:05:09.430Z,25.78
2023-02-27T13:10:31.393Z,25.11
2023-02-27T13:15:42.724Z,25.99
2023-02-27T13:20:51.271Z,26.29
2023-02-27T13:25:56.782Z,27.48
2023-02-27T13:31:12.691Z,30.57
2023-02-27T13:36:24.740Z,31.57
2023-02-27T13:41:36.099Z,26.94
2023-02-27T13:46:38.348Z,25.04
2023-02-27T13:51:43.524Z,27.43
2023-02-27T13:56:48.312Z,30.24
2023-02-27T14:02:03.319Z,32.68
2023-02-27T14:07:15.425Z,33.56
2023-02-27T14:12:44.432Z,34.18
2023-02-27T14:17:54.622Z,34.14
2023-02-27T14:23:17.129Z,33.00
2023-02-27T14:28:32.375Z,33.23
2023-02-27T14:33:46.281Z,32.92
2023-02-27T14:38:50.588Z,33.20
2023-02-27T14:43:56.785Z,32.86
2023-02-27T14:49:20.050Z,32.37
2023-02-27T14:54:28.002Z,29.43
2023-02-27T14:59:41.800Z,25.88
2023-02-27T15:04:45.658Z,21.04
2023-02-27T15:09:49.209Z,18.96
2023-02-27T15:14:55.227Z,18.86
2023-02-27T15:19:59.525Z,19.04
2023-02-27T15:25:04.610Z,17.85
2023-02-27T15:30:07.833Z,17.62
2023-02-27T15:35:19.733Z,18.73
2023-02-27T15:40:30.429Z,19.40
2023-02-27T15:45:35.729Z,20.34
2023-02-27T15:50:38.374Z,25.19
2023-02-27T15:55:49.873Z,29.08
2023-02-27T16:01:02.238Z,31.78
2023-02-27T16:06:30.582Z,33.61
2023-02-27T16:11:35.682Z,35.59
2023-02-27T16:16:38.955Z,36.94
2023-02-27T16:22:27.320Z,37.74
2023-02-27T16:27:31.835Z,38.49
2023-02-27T16:32:42.143Z,39.30
2023-02-27T16:37:46.067Z,39.88
2023-02-27T16:42:48.530Z,40.74
2023-02-27T16:47:53.748Z,41.17
2023-02-27T16:52:56.214Z,41.78
2023-02-27T16:57:58.297Z,42.52
2023-02-27T17:03:01.154Z,43.64
2023-02-27T17:08:03.350Z,44.56
2023-02-27T17:13:05.455Z,44.41
2023-02-27T17:18:09.337Z,44.78
2023-02-27T17:23:14.293Z,45.05
2023-02-27T17:28:16.533Z,45.16
2023-02-27T17:33:18.633Z,45.47
2023-02-27T17:38:21.378Z,46.52
2023-02-27T17:43:23.562Z,46.55
2023-02-27T17:48:25.773Z,46.54
2023-02-27T17:53:27.837Z,47.04
2023-02-27T17:58:30.149Z,46.73
2023-02-27T18:03:33.167Z,47.33
2023-02-27T18:08:35.724Z,47.68
2023-02-27T18:13:38.902Z,47.85
2023-02-27T18:18:42.585Z,48.08
2023-02-27T18:23:44.963Z,48.67
2023-02-27T18:28:48.893Z,48.03
2023-02-27T18:33:51.435Z,48.00
2023-02-27T18:38:53.544Z,48.59
2023-02-27T18:43:55.699Z,48.73
2023-02-27T18:48:58.312Z,48.99
2023-02-27T18:54:00.852Z,49.34
2023-02-27T18:59:05.284Z,49.77
2023-02-27T19:04:09.567Z,50.23
2023-02-27T19:09:16.125Z,50.48
2023-02-27T19:14:18.343Z,50.27
2023-02-27T19:19:20.523Z,50.74
2023-02-27T19:24:23.038Z,50.97
2023-02-27T19:29:25.140Z,50.82
2023-02-27T19:34:27.367Z,50.74
2023-02-27T19:39:29.490Z,51.18
2023-02-27T19:44:31.587Z,50.77
2023-02-27T19:49:33.709Z,51.43
2023-02-27T19:54:35.871Z,50.54
2023-02-27T19:59:39.369Z,51.26
2023-02-27T20:04:41.513Z,51.08
2023-02-27T20:09:43.725Z,50.55
2023-02-27T20:14:45.815Z,50.80
2023-02-27T20:19:47.906Z,50.34
2023-02-27T20:24:50.006Z,50.23
2023-02-27T20:29:55.118Z,50.19
2023-02-27T20:34:57.245Z,51.27
2023-02-27T20:39:59.454Z,51.99
2023-02-27T20:45:01.540Z,51.02
2023-02-27T20:50:03.688Z,50.98
2023-02-27T20:55:06.245Z,51.95
2023-02-27T21:00:12.556Z,51.38
2023-02-27T21:05:14.826Z,51.65
2023-02-27T21:10:17.238Z,52.49
2023-02-27T21:15:19.348Z,52.83
2023-02-27T21:20:22.653Z,53.64
2023-02-27T21:25:25.562Z,53.25
2023-02-27T21:30:30.445Z,53.18
2023-02-27T21:35:32.803Z,53.35
2023-02-27T21:40:35.142Z,53.08
2023-02-27T21:45:41.532Z,53.46
2023-02-27T21:50:44.005Z,53.61
2023-02-27T21:55:46.104Z,54.18
2023-02-27T22:00:48.941Z,54.27
